createdAt,value
2019-05-29T00:00:13.397Z,202.70
2019-05-29T00:00:47.745Z,199.40
2019-05-29T00:01:22.986Z,200.40
2019-05-29T00:01:58.384Z,186.90
2019-05-29T00:02:33.667Z,187.90
2019-05-29T00:03:10.322Z,192.50
2019-05-29T00:03:44.498Z,182.70
2019-05-29T00:04:19.988Z,175.30
2019-05-29T00:04:55.572Z,175.30
2019-05-29T00:05:30.850Z,170.00
2019-05-29T00:06:06.436Z,192.50
2019-05-29T00:06:41.628Z,182.70
2019-05-29T00:07:17.090Z,187.70
2019-05-29T00:07:52.379Z,186.30
2019-05-29T00:08:27.530Z,194.50
2019-05-29T00:09:02.827Z,180.80
2019-05-29T00:09:38.096Z,170.30
2019-05-29T00:10:14.294Z,178.50
2019-05-29T00:10:48.348Z,188.90
2019-05-29T00:11:23.782Z,175.10
2019-05-29T00:11:59.152Z,176.90
2019-05-29T00:12:34.747Z,180.30
2019-05-29T00:13:10.314Z,168.90
2019-05-29T00:13:45.505Z,192.30
2019-05-29T00:14:27.124Z,183.20
2019-05-29T00:14:56.759Z,181.90
2019-05-29T00:15:31.921Z,167.80
2019-05-29T00:16:08.290Z,171.30
2019-05-29T00:16:42.414Z,174.70
2019-05-29T00:17:18.768Z,175.40
2019-05-29T00:17:52.903Z,191.60
2019-05-29T00:18:28.193Z,176.50
2019-05-29T00:19:03.468Z,160.70
2019-05-29T00:19:38.656Z,164.00
2019-05-29T00:20:14.588Z,168.60
2019-05-29T00:20:48.929Z,153.80
2019-05-29T00:21:24.286Z,153.40
2019-05-29T00:21:59.609Z,161.80
2019-05-29T00:22:35.189Z,158.20
2019-05-29T00:23:10.558Z,177.40
2019-05-29T00:23:45.664Z,167.60
2019-05-29T00:24:21.090Z,154.30
2019-05-29T00:24:56.219Z,170.40
2019-05-29T00:25:31.603Z,154.40
2019-05-29T00:26:06.666Z,157.70
2019-05-29T00:26:41.861Z,158.90
2019-05-29T00:27:17.833Z,163.30
2019-05-29T00:27:52.639Z,178.20
2019-05-29T00:28:27.694Z,181.80
2019-05-29T00:29:03.195Z,169.10
2019-05-29T00:29:38.372Z,159.40
2019-05-29T00:30:14.899Z,182.10
2019-05-29T00:30:49.053Z,184.80
2019-05-29T00:31:24.318Z,176.40
2019-05-29T00:32:00.017Z,153.90
2019-05-29T00:32:35.588Z,173.60
2019-05-29T00:33:10.636Z,175.60
2019-05-29T00:33:45.791Z,153.50
2019-05-29T00:34:21.326Z,184.90
2019-05-29T00:34:56.967Z,191.10
2019-05-29T00:35:32.151Z,195.50
2019-05-29T00:36:08.153Z,192.40
2019-05-29T00:36:42.797Z,160.00
2019-05-29T00:37:18.064Z,166.30
2019-05-29T00:37:53.281Z,174.90
2019-05-29T00:38:28.751Z,201.40
2019-05-29T00:39:03.950Z,186.80
2019-05-29T00:39:39.235Z,161.90
2019-05-29T00:40:15.058Z,172.60
2019-05-29T00:40:49.799Z,189.90
2019-05-29T00:41:24.997Z,176.70
2019-05-29T00:42:00.467Z,185.10
2019-05-29T00:42:36.872Z,175.60
2019-05-29T00:43:13.181Z,168.80
2019-05-29T00:43:47.471Z,180.10
2019-05-29T00:44:33.882Z,165.10
2019-05-29T00:44:58.111Z,170.10
2019-05-29T00:45:33.406Z,171.10
2019-05-29T00:46:09.299Z,172.50
2019-05-29T00:46:43.990Z,169.00
2019-05-29T00:47:19.051Z,170.00
2019-05-29T00:47:54.571Z,173.00
2019-05-29T00:48:29.878Z,171.90
2019-05-29T00:49:05.165Z,188.20
2019-05-29T00:49:40.730Z,160.60
2019-05-29T00:50:16.129Z,172.10
2019-05-29T00:50:51.105Z,183.50
2019-05-29T00:51:26.418Z,198.10
2019-05-29T00:52:01.583Z,183.90
2019-05-29T00:52:36.787Z,153.20
2019-05-29T00:53:12.219Z,159.30
2019-05-29T00:53:47.398Z,185.10
2019-05-29T00:54:22.782Z,197.60
2019-05-29T00:54:57.984Z,178.30
2019-05-29T00:55:33.351Z,144.20
2019-05-29T00:56:08.952Z,165.00
2019-05-29T00:56:44.226Z,166.10
2019-05-29T00:57:19.235Z,176.90
2019-05-29T00:57:54.415Z,158.50
2019-05-29T00:58:29.919Z,153.80
2019-05-29T00:59:05.511Z,185.20
2019-05-29T00:59:40.795Z,181.70
2019-05-29T01:00:17.328Z,208.70
2019-05-29T01:00:51.275Z,219.50
2019-05-29T01:01:26.540Z,197.40
2019-05-29T01:02:01.891Z,164.80
2019-05-29T01:02:37.027Z,164.80
2019-05-29T01:03:12.241Z,177.80
2019-05-29T01:03:47.699Z,163.20
2019-05-29T01:04:22.821Z,176.40
2019-05-29T01:04:57.984Z,197.00
2019-05-29T01:05:33.080Z,189.10
2019-05-29T01:06:09.815Z,216.10
2019-05-29T01:06:44.539Z,199.80
2019-05-29T01:07:20.522Z,167.20
2019-05-29T01:07:55.419Z,171.70
2019-05-29T01:08:30.677Z,152.90
2019-05-29T01:09:06.081Z,140.10
2019-05-29T01:09:41.692Z,164.10
2019-05-29T01:10:18.821Z,177.00
2019-05-29T01:10:52.855Z,173.20
2019-05-29T01:11:28.661Z,169.00
2019-05-29T01:12:03.732Z,166.20
2019-05-29T01:12:39.142Z,182.90
2019-05-29T01:13:15.072Z,167.70
2019-05-29T01:13:49.722Z,184.80
2019-05-29T01:14:24.990Z,180.40
2019-05-29T01:15:00.327Z,175.10
2019-05-29T01:15:35.692Z,177.20
2019-05-29T01:16:11.302Z,161.50
2019-05-29T01:16:46.109Z,176.40
2019-05-29T01:17:21.849Z,172.50
2019-05-29T01:17:56.860Z,167.00
2019-05-29T01:18:32.050Z,164.40
2019-05-29T01:19:07.327Z,181.70
2019-05-29T01:19:42.737Z,178.80
2019-05-29T01:20:18.242Z,172.70
2019-05-29T01:20:53.447Z,177.70
2019-05-29T01:21:28.717Z,161.00
2019-05-29T01:22:04.150Z,149.60
2019-05-29T01:22:39.289Z,153.70
2019-05-29T01:23:14.590Z,162.20
2019-05-29T01:23:50.070Z,169.10
2019-05-29T01:24:25.268Z,188.10
2019-05-29T01:25:00.756Z,186.40
2019-05-29T01:25:35.978Z,155.60
2019-05-29T01:26:11.147Z,169.80
2019-05-29T01:26:46.464Z,156.00
2019-05-29T01:27:23.004Z,147.90
2019-05-29T01:27:57.338Z,155.10
2019-05-29T01:28:32.804Z,144.90
2019-05-29T01:29:08.001Z,168.30
2019-05-29T01:29:43.178Z,182.70
2019-05-29T01:30:19.341Z,154.50
2019-05-29T01:30:54.080Z,163.00
2019-05-29T01:31:29.368Z,146.70
2019-05-29T01:32:04.742Z,145.50
2019-05-29T01:32:39.938Z,140.20
2019-05-29T01:33:19.388Z,142.60
2019-05-29T01:33:51.195Z,158.40
2019-05-29T01:34:26.468Z,155.30
2019-05-29T01:35:01.778Z,157.00
2019-05-29T01:35:37.057Z,161.20
2019-05-29T01:36:12.311Z,149.60
2019-05-29T01:36:47.487Z,165.70
2019-05-29T01:37:22.894Z,174.40
2019-05-29T01:37:58.462Z,172.20
2019-05-29T01:38:33.651Z,155.80
2019-05-29T01:39:08.926Z,140.40
2019-05-29T01:39:44.224Z,141.20
2019-05-29T01:40:24.755Z,152.20
2019-05-29T01:40:54.839Z,163.50
2019-05-29T01:41:29.929Z,168.90
2019-05-29T01:42:05.231Z,168.80
2019-05-29T01:42:40.502Z,180.00
2019-05-29T01:43:17.413Z,163.40
2019-05-29T01:43:51.684Z,165.30
2019-05-29T01:44:27.811Z,173.40
2019-05-29T01:45:07.755Z,166.30
2019-05-29T01:45:37.574Z,149.70
2019-05-29T01:46:12.846Z,140.90
2019-05-29T01:46:48.177Z,151.90
2019-05-29T01:47:23.733Z,153.90
2019-05-29T01:47:59.177Z,166.40
2019-05-29T01:48:34.649Z,171.60
2019-05-29T01:49:10.279Z,172.70
2019-05-29T01:49:45.550Z,138.80
2019-05-29T01:50:21.618Z,139.20
2019-05-29T01:50:56.247Z,141.80
2019-05-29T01:51:31.778Z,140.40
2019-05-29T01:52:07.082Z,150.60
2019-05-29T01:52:42.384Z,157.30
2019-05-29T01:53:17.757Z,163.00
2019-05-29T01:53:52.880Z,166.90
2019-05-29T01:54:28.062Z,173.10
2019-05-29T01:55:03.266Z,162.10
2019-05-29T01:55:38.658Z,142.10
2019-05-29T01:56:14.160Z,153.10
2019-05-29T01:56:49.336Z,160.00
2019-05-29T01:57:24.474Z,157.50
2019-05-29T01:57:59.548Z,161.50
2019-05-29T01:58:34.893Z,160.10
2019-05-29T01:59:10.368Z,160.40
2019-05-29T01:59:45.577Z,168.30
2019-05-29T02:00:21.982Z,183.00
2019-05-29T02:00:56.776Z,178.70
2019-05-29T02:01:32.168Z,165.60
2019-05-29T02:02:07.486Z,137.60
2019-05-29T02:02:42.821Z,123.00
2019-05-29T02:03:18.076Z,128.90
2019-05-29T02:03:53.579Z,152.00
2019-05-29T02:04:28.863Z,176.00
2019-05-29T02:05:04.186Z,159.50
2019-05-29T02:05:39.256Z,138.10
2019-05-29T02:06:15.751Z,148.40
2019-05-29T02:06:49.742Z,166.80
2019-05-29T02:07:24.986Z,161.40
2019-05-29T02:08:00.567Z,148.30
2019-05-29T02:08:35.869Z,137.00
2019-05-29T02:09:11.142Z,143.60
2019-05-29T02:09:46.639Z,162.20
2019-05-29T02:10:22.326Z,134.90
2019-05-29T02:10:57.525Z,141.50
2019-05-29T02:11:32.797Z,144.00
2019-05-29T02:12:08.247Z,144.30
2019-05-29T02:12:43.541Z,155.80
2019-05-29T02:13:19.405Z,170.20
2019-05-29T02:13:53.929Z,155.40
2019-05-29T02:14:29.240Z,159.60
2019-05-29T02:15:04.612Z,152.60
2019-05-29T02:15:40.019Z,147.10
2019-05-29T02:16:15.099Z,160.40
2019-05-29T02:16:50.413Z,139.40
2019-05-29T02:17:25.927Z,139.00
2019-05-29T02:18:01.033Z,147.40
2019-05-29T02:18:36.216Z,157.30
2019-05-29T02:19:11.518Z,144.60
2019-05-29T02:19:46.987Z,131.30
2019-05-29T02:20:23.055Z,134.50
2019-05-29T02:20:57.563Z,144.40
2019-05-29T02:21:32.971Z,139.30
2019-05-29T02:22:08.547Z,128.20
2019-05-29T02:22:43.775Z,142.70
2019-05-29T02:23:19.930Z,158.10
2019-05-29T02:23:54.281Z,130.50
2019-05-29T02:24:29.760Z,132.20
2019-05-29T02:25:05.073Z,153.70
2019-05-29T02:25:40.354Z,151.70
2019-05-29T02:26:16.100Z,158.50
2019-05-29T02:26:51.037Z,166.00
2019-05-29T02:27:26.245Z,143.50
2019-05-29T02:28:01.559Z,123.60
2019-05-29T02:28:36.960Z,142.90
2019-05-29T02:29:12.090Z,166.30
2019-05-29T02:29:47.308Z,159.70
2019-05-29T02:30:23.600Z,142.50
2019-05-29T02:30:57.915Z,135.10
2019-05-29T02:31:33.492Z,151.40
2019-05-29T02:32:08.696Z,163.90
2019-05-29T02:32:44.111Z,146.30
2019-05-29T02:33:19.736Z,156.00
2019-05-29T02:33:54.892Z,150.00
2019-05-29T02:34:30.317Z,164.30
2019-05-29T02:35:05.689Z,160.30
2019-05-29T02:35:40.999Z,151.40
2019-05-29T02:36:17.547Z,151.00
2019-05-29T02:36:51.669Z,148.70
2019-05-29T02:37:28.743Z,151.90
2019-05-29T02:38:02.574Z,146.20
2019-05-29T02:38:38.087Z,147.80
2019-05-29T02:39:13.569Z,165.10
2019-05-29T02:39:48.879Z,178.70
2019-05-29T02:40:25.904Z,154.70
2019-05-29T02:40:59.373Z,128.60
2019-05-29T02:41:34.590Z,126.40
2019-05-29T02:42:09.901Z,135.90
2019-05-29T02:42:45.172Z,146.90
2019-05-29T02:43:21.328Z,155.90
2019-05-29T02:43:55.878Z,151.90
2019-05-29T02:44:31.291Z,143.40
2019-05-29T02:45:06.576Z,137.50
2019-05-29T02:45:53.735Z,146.40
2019-05-29T02:46:17.451Z,140.30
2019-05-29T02:46:53.044Z,131.40
2019-05-29T02:47:30.093Z,128.00
2019-05-29T02:48:03.954Z,139.40
2019-05-29T02:48:38.932Z,148.30
2019-05-29T02:49:14.845Z,138.50
2019-05-29T02:49:50.022Z,142.20
2019-05-29T02:50:26.615Z,135.10
2019-05-29T02:51:00.407Z,144.80
2019-05-29T02:51:35.621Z,144.60
2019-05-29T02:52:10.996Z,150.60
2019-05-29T02:52:46.392Z,143.00
2019-05-29T02:53:22.247Z,148.20
2019-05-29T02:53:57.110Z,144.60
2019-05-29T02:54:32.632Z,130.40
2019-05-29T02:55:07.914Z,158.10
2019-05-29T02:55:43.325Z,166.00
2019-05-29T02:56:20.401Z,170.40
2019-05-29T02:56:54.407Z,177.50
2019-05-29T02:57:30.870Z,177.30
2019-05-29T02:58:05.275Z,152.60
2019-05-29T02:58:40.632Z,118.90
2019-05-29T02:59:16.002Z,126.90
2019-05-29T02:59:51.516Z,133.60
2019-05-29T03:00:27.631Z,134.60
2019-05-29T03:01:02.119Z,157.90
2019-05-29T03:01:57.468Z,155.00
2019-05-29T03:02:32.864Z,145.10
2019-05-29T03:03:08.142Z,163.00
2019-05-29T03:03:43.802Z,151.40
2019-05-29T03:04:19.005Z,141.70
2019-05-29T03:04:54.365Z,152.00
2019-05-29T03:05:29.894Z,148.70
2019-05-29T03:06:04.959Z,143.40
2019-05-29T03:06:40.125Z,160.40
2019-05-29T03:07:15.340Z,154.10
2019-05-29T03:07:50.926Z,147.40
2019-05-29T03:08:27.070Z,134.90
2019-05-29T03:09:01.657Z,139.90
2019-05-29T03:09:37.269Z,157.10
2019-05-29T03:10:12.542Z,155.20
2019-05-29T03:10:47.950Z,150.30
2019-05-29T03:11:25.009Z,129.70
2019-05-29T03:12:00.364Z,138.60
2019-05-29T03:12:34.125Z,156.30
2019-05-29T03:13:09.417Z,150.30
2019-05-29T03:13:44.948Z,151.50
2019-05-29T03:14:20.324Z,149.90
2019-05-29T03:14:55.641Z,141.70
2019-05-29T03:15:31.608Z,141.50
2019-05-29T03:16:11.253Z,126.10
2019-05-29T03:16:41.807Z,141.40
2019-05-29T03:17:17.295Z,145.70
2019-05-29T03:17:52.592Z,127.10
2019-05-29T03:18:28.261Z,125.20
2019-05-29T03:19:03.592Z,134.60
2019-05-29T03:19:38.997Z,113.00
2019-05-29T03:20:14.271Z,126.90
2019-05-29T03:20:49.679Z,134.90
2019-05-29T03:21:25.949Z,138.90
2019-05-29T03:22:00.256Z,138.90
2019-05-29T03:22:35.986Z,136.30
2019-05-29T03:23:11.265Z,132.10
2019-05-29T03:23:46.893Z,130.50
2019-05-29T03:24:22.203Z,140.90
2019-05-29T03:24:57.487Z,129.00
2019-05-29T03:25:34.909Z,136.30
2019-05-29T03:26:08.284Z,126.20
2019-05-29T03:26:43.678Z,130.10
2019-05-29T03:27:18.861Z,133.30
2019-05-29T03:27:54.160Z,127.10
2019-05-29T03:28:29.994Z,143.80
2019-05-29T03:29:04.564Z,140.70
2019-05-29T03:29:40.092Z,136.40
2019-05-29T03:30:15.277Z,136.90
2019-05-29T03:30:50.575Z,135.30
2019-05-29T03:31:28.361Z,139.00
2019-05-29T03:32:01.874Z,133.10
2019-05-29T03:32:43.454Z,134.80
2019-05-29T03:33:12.466Z,136.30
2019-05-29T03:33:50.381Z,137.30
2019-05-29T03:34:23.274Z,147.10
2019-05-29T03:34:58.645Z,134.30
2019-05-29T03:35:39.874Z,139.40
2019-05-29T03:36:09.672Z,144.10
2019-05-29T03:36:48.369Z,119.80
2019-05-29T03:37:20.217Z,135.10
2019-05-29T03:37:58.674Z,125.40
2019-05-29T03:38:32.467Z,122.20
2019-05-29T03:39:06.450Z,143.10
2019-05-29T03:39:41.828Z,154.30
2019-05-29T03:40:17.134Z,139.70
2019-05-29T03:40:52.325Z,135.40
2019-05-29T03:41:28.224Z,148.70
2019-05-29T03:42:02.993Z,142.80
2019-05-29T03:42:39.004Z,145.70
2019-05-29T03:43:13.459Z,155.20
2019-05-29T03:43:48.750Z,130.90
2019-05-29T03:44:24.047Z,132.70
2019-05-29T03:44:59.346Z,136.90
2019-05-29T03:45:36.216Z,134.50
2019-05-29T03:46:26.378Z,136.00
2019-05-29T03:46:46.195Z,141.20
2019-05-29T03:47:20.244Z,109.70
2019-05-29T03:47:55.642Z,133.20
2019-05-29T03:48:32.225Z,128.40
2019-05-29T03:49:06.039Z,117.80
2019-05-29T03:49:41.555Z,119.30
2019-05-29T03:50:16.741Z,121.20
2019-05-29T03:50:52.256Z,135.20
2019-05-29T03:51:29.383Z,137.40
2019-05-29T03:52:02.970Z,133.50
2019-05-29T03:52:38.951Z,132.00
2019-05-29T03:53:13.709Z,133.60
2019-05-29T03:53:49.113Z,144.20
2019-05-29T03:54:26.453Z,151.70
2019-05-29T03:55:00.139Z,144.10
2019-05-29T03:55:35.958Z,138.60
2019-05-29T03:56:10.516Z,132.90
2019-05-29T03:56:46.008Z,110.50
2019-05-29T03:57:21.231Z,134.30
2019-05-29T03:57:56.323Z,144.50
2019-05-29T03:58:32.926Z,133.60
2019-05-29T03:59:07.045Z,115.30
2019-05-29T03:59:42.557Z,111.00
2019-05-29T04:00:17.730Z,138.10
2019-05-29T04:00:52.945Z,135.50
2019-05-29T04:01:29.145Z,127.90
2019-05-29T04:02:03.654Z,122.60
2019-05-29T04:02:39.014Z,119.60
2019-05-29T04:03:14.326Z,137.10
2019-05-29T04:03:49.706Z,147.60
2019-05-29T04:04:26.765Z,143.30
2019-05-29T04:05:00.529Z,125.80
2019-05-29T04:05:37.719Z,124.50
2019-05-29T04:06:11.019Z,116.80
2019-05-29T04:06:47.364Z,119.70
2019-05-29T04:07:21.504Z,132.30
2019-05-29T04:07:56.713Z,143.00
2019-05-29T04:08:33.477Z,133.20
2019-05-29T04:09:07.610Z,141.60
2019-05-29T04:09:42.912Z,135.90
2019-05-29T04:10:18.104Z,119.70
2019-05-29T04:10:53.407Z,122.30
2019-05-29T04:11:29.257Z,134.30
2019-05-29T04:12:03.902Z,122.80
2019-05-29T04:12:38.981Z,120.10
2019-05-29T04:13:14.277Z,130.30
2019-05-29T04:13:49.550Z,124.60
2019-05-29T04:14:25.186Z,107.30
2019-05-29T04:15:00.373Z,113.90
2019-05-29T04:15:36.632Z,128.30
2019-05-29T04:16:10.765Z,121.40
2019-05-29T04:16:59.267Z,131.80
2019-05-29T04:17:21.632Z,130.60
2019-05-29T04:17:57.349Z,125.10
2019-05-29T04:18:33.846Z,119.70
2019-05-29T04:19:07.971Z,122.80
2019-05-29T04:19:43.260Z,122.20
2019-05-29T04:20:18.560Z,121.40
2019-05-29T04:20:53.745Z,127.70
2019-05-29T04:21:29.644Z,121.60
2019-05-29T04:22:04.225Z,125.00
2019-05-29T04:22:39.528Z,144.60
2019-05-29T04:23:14.606Z,136.10
2019-05-29T04:23:50.210Z,126.20
2019-05-29T04:24:25.403Z,124.90
2019-05-29T04:25:00.740Z,122.50
2019-05-29T04:25:39.690Z,129.00
2019-05-29T04:26:11.421Z,113.60
2019-05-29T04:26:47.052Z,124.00
2019-05-29T04:27:22.338Z,112.10
2019-05-29T04:27:57.843Z,139.30
2019-05-29T04:28:34.477Z,141.40
2019-05-29T04:29:08.115Z,123.00
2019-05-29T04:29:43.435Z,126.30
2019-05-29T04:30:19.030Z,124.50
2019-05-29T04:30:54.313Z,119.40
2019-05-29T04:31:29.964Z,103.00
2019-05-29T04:32:04.597Z,113.80
2019-05-29T04:32:39.887Z,133.20
2019-05-29T04:33:15.175Z,123.10
2019-05-29T04:33:50.586Z,118.20
2019-05-29T04:34:25.985Z,106.70
2019-05-29T04:35:01.489Z,121.80
2019-05-29T04:35:37.116Z,120.20
2019-05-29T04:36:11.862Z,126.70
2019-05-29T04:36:46.826Z,139.60
2019-05-29T04:37:22.535Z,116.20
2019-05-29T04:37:57.816Z,113.50
2019-05-29T04:38:33.799Z,118.30
2019-05-29T04:39:08.389Z,135.00
2019-05-29T04:39:43.703Z,135.20
2019-05-29T04:40:18.780Z,111.50
2019-05-29T04:40:54.190Z,108.60
2019-05-29T04:41:30.727Z,130.00
2019-05-29T04:42:04.603Z,139.00
2019-05-29T04:42:40.158Z,125.10
2019-05-29T04:43:14.774Z,114.90
2019-05-29T04:43:49.979Z,132.00
2019-05-29T04:44:25.633Z,139.90
2019-05-29T04:45:00.862Z,121.30
2019-05-29T04:45:39.124Z,128.60
2019-05-29T04:46:11.328Z,141.80
2019-05-29T04:46:46.945Z,143.30
2019-05-29T04:47:22.614Z,128.30
2019-05-29T04:47:58.125Z,138.30
2019-05-29T04:48:34.008Z,123.60
2019-05-29T04:49:09.006Z,121.40
2019-05-29T04:49:44.514Z,129.40
2019-05-29T04:50:20.020Z,112.30
2019-05-29T04:50:55.316Z,117.80
2019-05-29T04:51:31.192Z,134.00
2019-05-29T04:52:05.896Z,137.60
2019-05-29T04:52:41.198Z,133.60
2019-05-29T04:53:16.604Z,121.70
2019-05-29T04:53:51.882Z,128.80
2019-05-29T04:54:27.019Z,110.10
2019-05-29T04:55:02.841Z,104.30
2019-05-29T04:55:38.940Z,88.70
2019-05-29T04:56:13.533Z,73.20
2019-05-29T04:56:48.945Z,65.20
2019-05-29T04:57:24.549Z,72.80
2019-05-29T04:57:59.908Z,85.20
2019-05-29T04:58:35.012Z,80.50
2019-05-29T04:59:10.286Z,82.00
2019-05-29T04:59:45.638Z,64.50
2019-05-29T05:00:21.115Z,67.10
2019-05-29T05:00:59.430Z,66.30
2019-05-29T05:01:32.989Z,42.50
2019-05-29T05:02:07.315Z,53.50
2019-05-29T05:02:42.595Z,67.00
2019-05-29T05:03:17.902Z,50.60
2019-05-29T05:03:53.394Z,48.10
2019-05-29T05:04:29.141Z,35.90
2019-05-29T05:05:04.210Z,57.50
2019-05-29T05:05:39.722Z,41.60
2019-05-29T05:06:14.698Z,57.30
2019-05-29T05:06:50.302Z,50.90
2019-05-29T05:07:25.593Z,71.90
2019-05-29T05:08:00.912Z,51.60
2019-05-29T05:08:36.085Z,32.80
2019-05-29T05:09:11.708Z,47.50
2019-05-29T05:09:46.989Z,54.20
2019-05-29T05:10:22.722Z,32.80
2019-05-29T05:10:58.281Z,18.50
2019-05-29T05:11:33.473Z,89.10
2019-05-29T05:12:09.192Z,68.50
2019-05-29T05:12:44.422Z,54.10
2019-05-29T05:13:19.892Z,50.30
2019-05-29T05:13:55.160Z,60.00
2019-05-29T05:14:31.459Z,48.70
2019-05-29T05:15:05.959Z,54.40
2019-05-29T05:15:40.990Z,61.80
2019-05-29T05:16:16.376Z,53.90
2019-05-29T05:16:51.808Z,80.80
2019-05-29T05:17:27.184Z,74.00
2019-05-29T05:18:02.503Z,73.90
2019-05-29T05:18:37.958Z,46.00
2019-05-29T05:19:13.003Z,87.10
2019-05-29T05:19:48.292Z,64.80
2019-05-29T05:20:23.695Z,61.00
2019-05-29T05:20:58.937Z,61.50
2019-05-29T05:21:34.222Z,42.60
2019-05-29T05:22:09.885Z,26.10
2019-05-29T05:22:45.454Z,76.40
2019-05-29T05:23:20.674Z,75.90
2019-05-29T05:23:56.113Z,67.70
2019-05-29T05:24:32.055Z,86.80
2019-05-29T05:25:07.011Z,90.90
2019-05-29T05:25:42.321Z,59.20
2019-05-29T05:26:17.739Z,60.00
2019-05-29T05:26:53.200Z,100.20
2019-05-29T05:27:30.057Z,102.60
2019-05-29T05:28:04.356Z,74.50
2019-05-29T05:28:42.155Z,85.20
2019-05-29T05:29:14.877Z,80.60
2019-05-29T05:29:50.359Z,85.80
2019-05-29T05:30:25.995Z,87.30
2019-05-29T05:31:01.500Z,92.40
2019-05-29T05:31:36.891Z,84.90
2019-05-29T05:32:12.202Z,78.40
2019-05-29T05:32:47.774Z,69.20
2019-05-29T05:33:23.409Z,62.70
2019-05-29T05:33:58.679Z,65.80
2019-05-29T05:34:34.724Z,74.10
2019-05-29T05:35:09.298Z,82.10
2019-05-29T05:35:44.549Z,86.80
2019-05-29T05:36:19.948Z,85.10
2019-05-29T05:36:55.164Z,67.00
2019-05-29T05:37:30.624Z,43.70
2019-05-29T05:38:05.597Z,58.10
2019-05-29T05:38:41.103Z,82.90
2019-05-29T05:39:16.384Z,75.90
2019-05-29T05:39:52.166Z,60.40
2019-05-29T05:40:27.418Z,33.40
2019-05-29T05:41:02.807Z,53.80
2019-05-29T05:41:38.932Z,51.00
2019-05-29T05:42:13.305Z,75.40
2019-05-29T05:42:48.709Z,87.00
2019-05-29T05:43:24.566Z,53.10
2019-05-29T05:43:59.087Z,64.40
2019-05-29T05:44:34.954Z,60.00
2019-05-29T05:45:09.699Z,54.30
2019-05-29T05:45:45.250Z,71.40
2019-05-29T05:46:20.428Z,113.30
2019-05-29T05:46:55.740Z,90.90
2019-05-29T05:47:45.105Z,60.60
2019-05-29T05:48:06.677Z,97.00
2019-05-29T05:48:42.046Z,89.40
2019-05-29T05:49:17.435Z,81.50
2019-05-29T05:49:52.751Z,61.40
2019-05-29T05:50:28.197Z,84.40
2019-05-29T05:51:03.712Z,43.00
2019-05-29T05:51:42.711Z,80.60
2019-05-29T05:52:14.642Z,91.00
2019-05-29T05:52:49.933Z,93.40
2019-05-29T05:53:25.548Z,78.30
2019-05-29T05:54:01.172Z,56.50
2019-05-29T05:54:37.535Z,46.90
2019-05-29T05:55:12.173Z,94.20
2019-05-29T05:55:47.438Z,90.10
2019-05-29T05:56:22.634Z,97.00
2019-05-29T05:56:58.057Z,100.20
2019-05-29T05:57:33.553Z,72.00
2019-05-29T05:58:08.673Z,91.20
2019-05-29T05:58:43.878Z,95.50
2019-05-29T05:59:19.174Z,117.40
2019-05-29T05:59:54.351Z,75.50
2019-05-29T06:00:29.799Z,61.10
2019-05-29T06:01:05.070Z,118.80
2019-05-29T06:01:40.378Z,116.10
2019-05-29T06:02:15.954Z,121.90
2019-05-29T06:02:52.271Z,111.80
2019-05-29T06:03:26.766Z,123.90
2019-05-29T06:04:02.068Z,152.20
2019-05-29T06:04:37.906Z,121.50
2019-05-29T06:05:12.490Z,103.40
2019-05-29T06:05:47.750Z,100.30
2019-05-29T06:06:23.241Z,93.10
2019-05-29T06:06:58.547Z,135.10
2019-05-29T06:07:34.107Z,99.30
2019-05-29T06:08:09.668Z,130.30
2019-05-29T06:08:44.956Z,167.50
2019-05-29T06:09:20.379Z,132.40
2019-05-29T06:09:55.764Z,131.90
2019-05-29T06:10:31.941Z,149.70
2019-05-29T06:11:06.685Z,144.30
2019-05-29T06:11:42.601Z,103.10
2019-05-29T06:12:18.004Z,112.00
2019-05-29T06:12:53.412Z,109.70
2019-05-29T06:13:29.013Z,98.20
2019-05-29T06:14:04.826Z,85.20
2019-05-29T06:14:40.663Z,66.20
2019-05-29T06:15:15.445Z,99.50
2019-05-29T06:15:50.889Z,96.70
2019-05-29T06:16:26.312Z,124.10
2019-05-29T06:17:01.709Z,155.50
2019-05-29T06:17:36.997Z,132.50
2019-05-29T06:18:21.011Z,159.20
2019-05-29T06:18:47.645Z,139.60
2019-05-29T06:19:23.147Z,131.70
2019-05-29T06:19:58.480Z,108.60
2019-05-29T06:20:34.592Z,94.60
2019-05-29T06:21:09.006Z,108.20
2019-05-29T06:21:44.536Z,123.90
2019-05-29T06:22:19.814Z,107.60
2019-05-29T06:22:55.225Z,134.30
2019-05-29T06:23:30.815Z,116.70
2019-05-29T06:24:06.236Z,88.90
2019-05-29T06:24:41.477Z,143.50
2019-05-29T06:25:16.692Z,115.30
2019-05-29T06:25:52.119Z,115.90
2019-05-29T06:26:27.412Z,107.00
2019-05-29T06:27:02.736Z,108.40
2019-05-29T06:27:39.052Z,115.30
2019-05-29T06:28:13.240Z,133.20
2019-05-29T06:28:48.533Z,145.30
2019-05-29T06:29:23.950Z,131.90
2019-05-29T06:29:59.167Z,170.50
2019-05-29T06:30:36.135Z,137.60
2019-05-29T06:31:10.217Z,101.00
2019-05-29T06:31:45.691Z,101.50
2019-05-29T06:32:21.288Z,166.60
2019-05-29T06:32:56.725Z,133.30
2019-05-29T06:33:33.390Z,108.10
2019-05-29T06:34:07.779Z,119.40
2019-05-29T06:34:43.797Z,103.50
2019-05-29T06:35:18.637Z,90.30
2019-05-29T06:35:53.965Z,117.30
2019-05-29T06:36:29.574Z,120.70
2019-05-29T06:37:04.763Z,125.50
2019-05-29T06:37:40.200Z,117.80
2019-05-29T06:38:15.578Z,105.30
2019-05-29T06:38:50.798Z,107.50
2019-05-29T06:39:26.181Z,124.40
2019-05-29T06:40:01.463Z,112.80
2019-05-29T06:40:37.826Z,84.40
2019-05-29T06:41:12.122Z,129.30
2019-05-29T06:41:47.846Z,133.10
2019-05-29T06:42:22.955Z,114.10
2019-05-29T06:42:58.069Z,107.50
2019-05-29T06:43:33.801Z,145.10
2019-05-29T06:44:08.614Z,127.80
2019-05-29T06:44:47.041Z,138.90
2019-05-29T06:45:19.535Z,130.00
2019-05-29T06:45:54.853Z,112.80
2019-05-29T06:46:30.405Z,118.00
2019-05-29T06:47:05.674Z,139.40
2019-05-29T06:47:42.615Z,125.30
2019-05-29T06:48:16.664Z,106.60
2019-05-29T06:48:59.553Z,101.60
2019-05-29T06:49:27.281Z,108.40
2019-05-29T06:50:02.498Z,173.20
2019-05-29T06:50:39.236Z,150.60
2019-05-29T06:51:13.257Z,161.80
2019-05-29T06:51:48.576Z,140.20
2019-05-29T06:52:23.576Z,146.70
2019-05-29T06:52:58.703Z,122.40
2019-05-29T06:53:35.506Z,123.90
2019-05-29T06:54:09.548Z,134.90
2019-05-29T06:54:45.089Z,169.80
2019-05-29T06:55:20.286Z,148.20
2019-05-29T06:55:56.549Z,139.10
2019-05-29T06:56:30.951Z,144.10
2019-05-29T06:57:06.679Z,134.70
2019-05-29T06:57:42.631Z,170.60
2019-05-29T06:58:17.617Z,161.00
2019-05-29T06:58:53.051Z,141.50
2019-05-29T06:59:28.366Z,140.30
2019-05-29T07:00:03.574Z,149.90
2019-05-29T07:00:39.395Z,133.40
2019-05-29T07:01:14.823Z,149.40
2019-05-29T07:01:50.251Z,182.20
2019-05-29T07:02:25.667Z,130.70
2019-05-29T07:03:01.413Z,138.30
2019-05-29T07:03:37.564Z,128.00
2019-05-29T07:04:12.595Z,131.50
2019-05-29T07:04:47.266Z,116.00
2019-05-29T07:05:22.573Z,114.50
2019-05-29T07:05:57.929Z,115.50
2019-05-29T07:06:33.321Z,128.80
2019-05-29T07:07:08.563Z,137.60
2019-05-29T07:07:44.516Z,116.90
2019-05-29T07:08:35.249Z,112.50
2019-05-29T07:08:55.100Z,138.20
2019-05-29T07:09:30.614Z,118.90
2019-05-29T07:10:05.708Z,104.20
2019-05-29T07:10:42.481Z,132.40
2019-05-29T07:11:16.369Z,110.90
2019-05-29T07:11:51.976Z,113.60
2019-05-29T07:12:27.465Z,127.50
2019-05-29T07:13:02.801Z,124.40
2019-05-29T07:13:40.609Z,110.10
2019-05-29T07:14:13.510Z,98.00
2019-05-29T07:14:48.705Z,89.40
2019-05-29T07:15:24.479Z,102.40
2019-05-29T07:15:59.673Z,113.70
2019-05-29T07:16:45.459Z,108.10
2019-05-29T07:17:10.712Z,117.60
2019-05-29T07:17:46.676Z,113.20
2019-05-29T07:18:21.625Z,143.10
2019-05-29T07:19:24.102Z,138.20
2019-05-29T07:19:47.701Z,114.20
2019-05-29T07:20:07.561Z,90.40
2019-05-29T07:20:42.916Z,115.60
2019-05-29T07:21:18.348Z,135.10
2019-05-29T07:21:53.678Z,118.90
2019-05-29T07:22:29.018Z,113.30
2019-05-29T07:23:04.458Z,107.60
2019-05-29T07:23:41.106Z,101.70